createdAt,value
2018-06-10T00:01:10.490Z,21.80
2018-06-10T00:03:38.633Z,21.90
2018-06-10T00:06:06.789Z,21.80
2018-06-10T00:08:34.930Z,21.80
2018-06-10T00:11:03.086Z,21.80
2018-06-10T00:13:31.261Z,21.80
2018-06-10T00:15:59.414Z,21.80
2018-06-10T00:18:27.554Z,21.80
2018-06-10T00:20:55.753Z,21.80
2018-06-10T00:23:24.011Z,21.80
2018-06-10T00:25:52.710Z,21.80
2018-06-10T00:28:26.301Z,21.70
2018-06-10T00:30:54.653Z,21.70
2018-06-10T00:33:22.965Z,21.70
2018-06-10T00:35:51.283Z,21.70
2018-06-10T00:38:19.422Z,21.70
2018-06-10T00:40:47.602Z,21.60
2018-06-10T00:43:15.785Z,21.60
2018-06-10T00:45:43.952Z,21.60
2018-06-10T00:48:12.085Z,21.70
2018-06-10T00:50:40.233Z,21.60
2018-06-10T00:53:08.418Z,21.60
2018-06-10T00:55:36.585Z,21.60
2018-06-10T00:58:04.726Z,21.50
2018-06-10T01:00:32.874Z,21.40
2018-06-10T01:03:01.018Z,21.50
2018-06-10T01:05:30.661Z,21.40
2018-06-10T01:07:59.017Z,21.20
2018-06-10T01:10:27.168Z,21.10
2018-06-10T01:12:55.570Z,21.00
2018-06-10T01:15:23.778Z,20.90
2018-06-10T01:17:51.962Z,20.90
2018-06-10T01:20:20.261Z,20.80
2018-06-10T01:22:48.422Z,20.90
2018-06-10T01:25:16.577Z,20.80
2018-06-10T01:27:44.717Z,20.70
2018-06-10T01:30:12.861Z,20.60
2018-06-10T01:32:41.017Z,20.60
2018-06-10T01:35:09.230Z,20.60
2018-06-10T01:37:37.390Z,20.60
2018-06-10T01:40:05.534Z,20.50
2018-06-10T01:42:33.726Z,20.60
2018-06-10T01:45:01.846Z,20.60
2018-06-10T01:47:29.962Z,20.60
2018-06-10T01:49:58.141Z,20.60
2018-06-10T01:52:26.301Z,20.70
2018-06-10T01:54:54.541Z,20.60
2018-06-10T01:57:22.688Z,20.60
2018-06-10T01:59:50.785Z,20.50
2018-06-10T02:02:18.898Z,20.30
2018-06-10T02:04:47.005Z,20.20
2018-06-10T02:07:15.106Z,20.20
2018-06-10T02:09:43.227Z,20.20
2018-06-10T02:12:11.333Z,20.20
2018-06-10T02:14:39.473Z,20.30
2018-06-10T02:17:07.610Z,20.30
2018-06-10T02:19:35.727Z,20.30
2018-06-10T02:22:03.838Z,20.30
2018-06-10T02:24:31.946Z,20.30
2018-06-10T02:27:00.058Z,20.30
2018-06-10T02:29:28.186Z,20.30
2018-06-10T02:31:56.296Z,20.30
2018-06-10T02:34:24.403Z,20.30
2018-06-10T02:36:52.554Z,20.20
2018-06-10T02:39:20.678Z,20.20
2018-06-10T02:41:48.822Z,20.10
2018-06-10T02:44:16.942Z,20.10
2018-06-10T02:46:45.043Z,20.20
2018-06-10T02:49:13.234Z,20.20
2018-06-10T02:51:41.389Z,20.20
2018-06-10T02:54:09.469Z,20.20
2018-06-10T02:56:37.569Z,20.20
2018-06-10T02:59:05.693Z,20.20
2018-06-10T03:01:33.810Z,20.10
2018-06-10T03:04:01.937Z,20.10
2018-06-10T03:06:30.092Z,20.00
2018-06-10T03:08:58.185Z,19.90
2018-06-10T03:11:26.966Z,19.90
2018-06-10T03:13:55.108Z,19.90
2018-06-10T03:16:23.246Z,19.80
2018-06-10T03:18:51.417Z,19.90
2018-06-10T03:21:19.574Z,19.90
2018-06-10T03:23:47.673Z,19.90
2018-06-10T03:26:15.861Z,19.90
2018-06-10T03:28:43.999Z,19.90
2018-06-10T03:31:12.118Z,19.90
2018-06-10T03:33:40.262Z,19.90
2018-06-10T03:36:08.374Z,19.90
2018-06-10T03:38:36.477Z,19.90
2018-06-10T03:41:04.619Z,19.90
2018-06-10T03:43:32.737Z,19.90
2018-06-10T03:46:00.893Z,19.90
2018-06-10T03:48:28.993Z,20.00
2018-06-10T03:50:57.126Z,20.00
2018-06-10T03:53:25.257Z,19.80
2018-06-10T03:55:53.358Z,19.80
2018-06-10T03:58:21.477Z,19.80
2018-06-10T04:00:49.585Z,19.80
2018-06-10T04:03:17.702Z,19.80
2018-06-10T04:05:45.797Z,19.80
2018-06-10T04:08:13.918Z,19.80
2018-06-10T04:10:42.021Z,19.80
2018-06-10T04:13:10.222Z,19.70
2018-06-10T04:15:38.361Z,19.70
2018-06-10T04:18:06.495Z,19.70
2018-06-10T04:20:34.601Z,19.70
2018-06-10T04:23:02.725Z,19.70
2018-06-10T04:25:31.041Z,19.70
2018-06-10T04:27:59.194Z,19.70
2018-06-10T04:30:27.293Z,19.70
2018-06-10T04:32:55.411Z,19.70
2018-06-10T04:35:23.545Z,19.60
2018-06-10T04:37:51.750Z,19.70
2018-06-10T04:40:19.841Z,19.70
2018-06-10T04:42:48.017Z,19.60
2018-06-10T04:45:16.165Z,19.70
2018-06-10T04:47:44.334Z,19.70
2018-06-10T04:52:41.307Z,19.70
2018-06-10T04:55:09.462Z,19.70
2018-06-10T04:57:37.601Z,19.70
2018-06-10T05:00:05.842Z,19.70
2018-06-10T05:02:33.986Z,19.70
2018-06-10T05:05:02.140Z,19.70
2018-06-10T05:07:30.346Z,19.70
2018-06-10T05:09:58.533Z,19.80
2018-06-10T05:12:26.710Z,19.70
2018-06-10T05:14:54.862Z,19.80
2018-06-10T05:17:23.005Z,19.80
2018-06-10T05:19:51.250Z,19.70
2018-06-10T05:22:19.338Z,19.60
2018-06-10T05:24:47.485Z,19.60
2018-06-10T05:27:15.633Z,19.60
2018-06-10T05:29:43.833Z,19.60
2018-06-10T05:32:12.162Z,19.60
2018-06-10T05:34:40.365Z,19.70
2018-06-10T05:37:08.542Z,19.80
2018-06-10T05:39:36.662Z,19.80
2018-06-10T05:42:05.002Z,19.80
2018-06-10T05:44:33.113Z,19.80
2018-06-10T05:47:01.246Z,19.80
2018-06-10T05:49:29.357Z,19.80
2018-06-10T05:51:57.506Z,19.90
2018-06-10T05:54:25.638Z,19.90
2018-06-10T05:56:53.780Z,20.00
2018-06-10T05:59:21.897Z,19.90
2018-06-10T06:01:50.004Z,20.00
2018-06-10T06:04:18.178Z,20.00
2018-06-10T06:06:46.302Z,20.00
2018-06-10T06:09:14.401Z,19.90
2018-06-10T06:11:42.514Z,19.90
2018-06-10T06:14:10.617Z,19.80
2018-06-10T06:16:38.780Z,19.80
2018-06-10T06:19:06.869Z,19.90
2018-06-10T06:21:34.985Z,20.00
2018-06-10T06:24:03.145Z,20.00
2018-06-10T06:26:31.354Z,20.10
2018-06-10T06:28:59.453Z,20.10
2018-06-10T06:31:27.573Z,20.10
2018-06-10T06:33:55.679Z,20.10
2018-06-10T06:36:23.966Z,20.20
2018-06-10T06:38:52.073Z,20.20
2018-06-10T06:41:20.190Z,20.20
2018-06-10T06:43:48.341Z,20.20
2018-06-10T06:46:16.526Z,20.20
2018-06-10T06:48:44.669Z,20.30
2018-06-10T06:51:12.826Z,20.40
2018-06-10T06:53:40.996Z,20.50
2018-06-10T06:56:09.183Z,20.50
2018-06-10T06:58:37.330Z,20.50
2018-06-10T07:01:05.494Z,20.60
2018-06-10T07:03:33.639Z,20.70
2018-06-10T07:06:01.786Z,20.70
2018-06-10T07:08:29.937Z,20.80
2018-06-10T07:10:58.093Z,20.80
2018-06-10T07:13:26.237Z,20.90
2018-06-10T07:15:54.386Z,20.90
2018-06-10T07:20:50.445Z,21.00
2018-06-10T07:23:18.601Z,21.10
2018-06-10T07:25:46.743Z,21.20
2018-06-10T07:28:14.910Z,21.20
2018-06-10T07:30:43.093Z,21.30
2018-06-10T07:33:11.241Z,21.20
2018-06-10T07:35:39.386Z,21.20
2018-06-10T07:38:07.538Z,21.20
2018-06-10T07:40:35.733Z,21.30
2018-06-10T07:43:03.837Z,21.20
2018-06-10T07:45:31.977Z,21.20
2018-06-10T07:48:00.134Z,21.20
2018-06-10T07:50:28.271Z,21.20
2018-06-10T07:52:56.421Z,21.20
2018-06-10T07:55:24.562Z,21.20
2018-06-10T07:57:52.721Z,21.20
2018-06-10T08:00:22.253Z,21.20
2018-06-10T08:02:50.597Z,21.20
2018-06-10T08:05:18.747Z,21.20
2018-06-10T08:07:46.890Z,21.30
2018-06-10T08:10:15.054Z,21.30
2018-06-10T08:12:43.221Z,21.30
2018-06-10T08:15:11.474Z,21.40
2018-06-10T08:17:39.685Z,21.40
2018-06-10T08:20:07.830Z,21.40
2018-06-10T08:22:35.990Z,21.50
2018-06-10T08:25:04.166Z,21.50
2018-06-10T08:27:32.322Z,21.60
2018-06-10T08:30:00.689Z,21.60
2018-06-10T08:32:28.929Z,21.60
2018-06-10T08:34:57.078Z,21.60
2018-06-10T08:37:25.266Z,21.60
2018-06-10T08:39:53.374Z,21.60
2018-06-10T08:42:21.808Z,21.60
2018-06-10T08:44:50.054Z,21.60
2018-06-10T08:47:18.198Z,21.60
2018-06-10T08:49:46.345Z,21.70
2018-06-10T08:52:14.574Z,21.80
2018-06-10T08:54:42.790Z,21.70
2018-06-10T08:57:10.934Z,21.80
2018-06-10T08:59:39.078Z,21.80
2018-06-10T09:02:07.231Z,21.90
2018-06-10T09:04:35.381Z,21.90
2018-06-10T09:07:03.581Z,21.90
2018-06-10T09:09:31.750Z,22.00
2018-06-10T09:11:59.899Z,22.00
2018-06-10T09:14:28.054Z,22.00
2018-06-10T09:16:56.206Z,22.10
2018-06-10T09:19:24.365Z,22.20
2018-06-10T09:21:52.505Z,22.20
2018-06-10T09:24:20.680Z,22.20
2018-06-10T09:26:48.858Z,22.30
2018-06-10T09:29:17.017Z,22.30
2018-06-10T09:31:45.162Z,22.40
2018-06-10T09:34:13.305Z,22.50
2018-06-10T09:36:41.458Z,22.60
2018-06-10T09:39:09.610Z,22.70
2018-06-10T09:41:37.764Z,22.80
2018-06-10T09:44:05.930Z,22.80
2018-06-10T09:46:34.042Z,22.90
2018-06-10T09:49:02.160Z,23.10
2018-06-10T09:51:30.285Z,23.20
2018-06-10T09:53:58.425Z,23.30
2018-06-10T09:56:26.545Z,23.50
2018-06-10T09:58:54.655Z,23.60
2018-06-10T10:01:22.761Z,23.70
2018-06-10T10:03:50.874Z,23.80
2018-06-10T10:06:18.994Z,23.80
2018-06-10T10:08:47.119Z,23.90
2018-06-10T10:11:15.233Z,23.90
2018-06-10T10:13:43.362Z,23.90
2018-06-10T10:16:11.538Z,23.90
2018-06-10T10:18:39.671Z,23.90
2018-06-10T10:21:07.798Z,23.80
2018-06-10T10:23:35.901Z,23.90
2018-06-10T10:26:04.042Z,23.90
2018-06-10T10:28:32.166Z,23.90
2018-06-10T10:31:00.285Z,23.80
2018-06-10T10:33:28.393Z,23.80
2018-06-10T10:35:56.508Z,23.70
2018-06-10T10:38:24.677Z,23.70
2018-06-10T10:40:52.779Z,23.70
2018-06-10T10:43:20.905Z,23.70
2018-06-10T10:45:49.066Z,23.60
2018-06-10T10:48:17.191Z,23.60
2018-06-10T10:50:45.320Z,23.60
2018-06-10T10:53:13.451Z,23.60
2018-06-10T10:55:41.558Z,23.50
2018-06-10T10:58:09.807Z,23.50
2018-06-10T11:00:37.890Z,23.50
2018-06-10T11:03:06.097Z,23.40
2018-06-10T11:05:34.202Z,23.40
2018-06-10T11:10:30.256Z,23.40
2018-06-10T11:12:58.373Z,23.30
2018-06-10T11:15:26.570Z,23.30
2018-06-10T11:17:54.737Z,23.40
2018-06-10T11:20:22.915Z,23.40
2018-06-10T11:22:50.973Z,23.50
2018-06-10T11:25:19.166Z,23.50
2018-06-10T11:27:47.362Z,23.50
2018-06-10T11:30:15.481Z,23.50
2018-06-10T11:32:43.614Z,23.50
2018-06-10T11:35:11.722Z,23.50
2018-06-10T11:37:39.863Z,23.50
2018-06-10T11:40:08.005Z,23.60
2018-06-10T11:42:36.177Z,23.60
2018-06-10T11:45:04.351Z,23.70
2018-06-10T11:47:32.505Z,23.90
2018-06-10T11:50:01.259Z,24.10
2018-06-10T11:52:29.457Z,24.20
2018-06-10T11:54:57.650Z,24.30
2018-06-10T11:57:25.788Z,24.40
2018-06-10T11:59:53.952Z,24.60
2018-06-10T12:02:22.122Z,24.70
2018-06-10T12:04:50.286Z,24.70
2018-06-10T12:07:18.438Z,24.70
2018-06-10T12:09:46.594Z,24.80
2018-06-10T12:12:14.818Z,24.80
2018-06-10T12:14:42.983Z,24.80
2018-06-10T12:17:11.182Z,24.90
2018-06-10T12:19:39.326Z,24.90
2018-06-10T12:22:07.470Z,24.90
2018-06-10T12:24:35.639Z,24.90
2018-06-10T12:27:03.787Z,24.90
2018-06-10T12:29:31.941Z,24.80
2018-06-10T12:32:00.091Z,24.80
2018-06-10T12:34:28.254Z,24.80
2018-06-10T12:36:56.405Z,24.90
2018-06-10T12:39:24.583Z,25.00
2018-06-10T12:41:52.735Z,25.20
2018-06-10T12:44:20.890Z,25.30
2018-06-10T12:46:49.070Z,25.40
2018-06-10T12:49:17.228Z,25.50
2018-06-10T12:51:46.491Z,25.50
2018-06-10T12:54:14.628Z,25.40
2018-06-10T12:56:42.794Z,25.40
2018-06-10T12:59:11.146Z,25.40
2018-06-10T13:01:39.307Z,25.40
2018-06-10T13:04:07.442Z,25.50
2018-06-10T13:09:03.840Z,25.30
2018-06-10T13:11:32.038Z,25.40
2018-06-10T13:14:00.181Z,25.60
2018-06-10T13:16:28.334Z,25.80
2018-06-10T13:18:56.491Z,26.00
2018-06-10T13:21:24.718Z,26.10
2018-06-10T13:23:52.863Z,26.00
2018-06-10T13:26:21.084Z,26.10
2018-06-10T13:28:49.218Z,26.30
2018-06-10T13:31:17.366Z,26.40
2018-06-10T13:33:45.516Z,26.50
2018-06-10T13:36:13.662Z,26.50
2018-06-10T13:38:41.818Z,26.50
2018-06-10T13:41:09.966Z,26.50
2018-06-10T13:43:38.146Z,26.40
2018-06-10T13:46:06.320Z,26.20
2018-06-10T13:48:34.450Z,26.00
2018-06-10T13:51:02.600Z,25.90
2018-06-10T13:53:30.760Z,25.80
2018-06-10T13:55:58.935Z,25.80
2018-06-10T13:58:27.065Z,25.70
2018-06-10T14:03:23.162Z,25.60
2018-06-10T14:05:51.314Z,25.70
2018-06-10T14:08:19.462Z,25.90
2018-06-10T14:10:47.601Z,25.90
2018-06-10T14:13:15.754Z,26.00
2018-06-10T14:15:43.905Z,26.30
2018-06-10T14:18:12.066Z,26.70
2018-06-10T14:20:40.210Z,27.00
2018-06-10T14:23:08.389Z,27.00
2018-06-10T14:25:36.510Z,27.00
2018-06-10T14:28:04.643Z,26.80
2018-06-10T14:30:32.757Z,26.80
2018-06-10T14:33:00.858Z,26.50
2018-06-10T14:35:28.982Z,26.50
2018-06-10T14:37:57.117Z,26.80
2018-06-10T14:40:25.214Z,27.10
2018-06-10T14:42:53.346Z,27.20
2018-06-10T14:45:21.526Z,27.20
2018-06-10T14:47:49.638Z,27.00
2018-06-10T14:50:17.762Z,26.70
2018-06-10T14:55:14.183Z,26.50
2018-06-10T14:57:42.301Z,26.70
2018-06-10T15:00:10.426Z,26.90
2018-06-10T15:02:38.531Z,27.00
2018-06-10T15:05:06.659Z,27.00
2018-06-10T15:07:34.761Z,26.90
2018-06-10T15:10:02.906Z,26.60
2018-06-10T15:12:31.034Z,26.30
2018-06-10T15:14:59.153Z,26.20
2018-06-10T15:17:27.258Z,26.00
2018-06-10T15:19:55.442Z,25.90
2018-06-10T15:22:23.554Z,25.80
2018-06-10T15:24:51.670Z,25.70
2018-06-10T15:27:19.806Z,25.70
2018-06-10T15:29:47.973Z,25.80
2018-06-10T15:32:16.058Z,25.90
2018-06-10T15:34:44.170Z,26.00
2018-06-10T15:37:12.290Z,26.00
2018-06-10T15:39:40.402Z,25.90
2018-06-10T15:44:36.490Z,25.70
2018-06-10T15:47:04.660Z,25.70
2018-06-10T15:49:33.738Z,25.60
2018-06-10T15:52:01.894Z,25.40
2018-06-10T15:54:30.139Z,25.30
2018-06-10T15:56:58.329Z,25.40
2018-06-10T15:59:26.480Z,25.40
2018-06-10T16:01:54.735Z,25.40
2018-06-10T16:04:22.922Z,25.50
2018-06-10T16:06:51.077Z,25.50
2018-06-10T16:09:19.226Z,25.40
2018-06-10T16:11:47.386Z,25.40
2018-06-10T16:14:15.640Z,25.40
2018-06-10T16:16:44.167Z,25.30
2018-06-10T16:19:12.294Z,25.30
2018-06-10T16:21:40.476Z,25.30
2018-06-10T16:24:08.710Z,25.30
2018-06-10T16:26:36.938Z,25.20
2018-06-10T16:29:05.135Z,25.10
2018-06-10T16:31:33.385Z,25.00
2018-06-10T16:34:01.784Z,25.00
2018-06-10T16:36:29.946Z,24.90
2018-06-10T16:38:58.185Z,24.90
2018-06-10T16:41:26.337Z,24.80
2018-06-10T16:43:54.465Z,24.80
2018-06-10T16:46:22.586Z,24.80
2018-06-10T16:48:50.798Z,24.80
2018-06-10T16:51:18.915Z,24.70
2018-06-10T16:53:47.042Z,24.70
2018-06-10T16:56:15.292Z,24.60
2018-06-10T16:58:43.558Z,24.60
2018-06-10T17:01:11.667Z,24.60
2018-06-10T17:03:39.839Z,24.60
2018-06-10T17:06:07.950Z,24.50
2018-06-10T17:08:36.100Z,24.50
2018-06-10T17:11:04.309Z,24.50
2018-06-10T17:13:32.449Z,24.50
2018-06-10T17:16:00.570Z,24.50
2018-06-10T17:18:28.693Z,24.50
2018-06-10T17:20:56.805Z,24.40
2018-06-10T17:23:25.029Z,24.40
2018-06-10T17:25:53.194Z,24.40
2018-06-10T17:28:21.315Z,24.30
2018-06-10T17:30:49.426Z,24.30
2018-06-10T17:33:17.566Z,24.30
2018-06-10T17:35:45.838Z,24.20
2018-06-10T17:38:14.095Z,24.20
2018-06-10T17:40:42.198Z,24.20
2018-06-10T17:43:11.893Z,24.10
2018-06-10T17:45:40.333Z,24.10
2018-06-10T17:48:08.502Z,24.10
2018-06-10T17:50:36.664Z,24.10
2018-06-10T17:53:04.936Z,24.10
2018-06-10T17:55:33.142Z,24.00
2018-06-10T17:58:01.294Z,23.90
2018-06-10T18:00:29.455Z,23.90
2018-06-10T18:02:57.638Z,23.90
2018-06-10T18:05:25.813Z,23.90
2018-06-10T18:07:53.962Z,23.80
2018-06-10T18:10:22.110Z,23.70
2018-06-10T18:12:50.270Z,23.80
2018-06-10T18:15:19.262Z,23.80
2018-06-10T18:17:47.508Z,23.70
2018-06-10T18:20:15.884Z,23.60
2018-06-10T18:22:44.189Z,23.60
2018-06-10T18:25:13.382Z,23.50
2018-06-10T18:27:42.280Z,23.50
2018-06-10T18:30:10.450Z,23.50
2018-06-10T18:32:38.642Z,23.40
2018-06-10T18:35:06.790Z,23.40
2018-06-10T18:37:34.942Z,23.40
2018-06-10T18:40:03.107Z,23.40
2018-06-10T18:42:31.891Z,23.40
2018-06-10T18:45:00.067Z,23.30
2018-06-10T18:47:28.245Z,23.30
2018-06-10T18:49:56.406Z,23.30
2018-06-10T18:52:24.566Z,23.20
2018-06-10T18:54:52.746Z,23.20
2018-06-10T18:57:20.914Z,23.20
2018-06-10T18:59:49.088Z,23.10
2018-06-10T19:02:17.270Z,23.00
2018-06-10T19:04:45.430Z,23.00
2018-06-10T19:07:13.644Z,23.00
2018-06-10T19:09:41.846Z,23.00
2018-06-10T19:12:10.046Z,22.80
2018-06-10T19:14:38.220Z,22.80
2018-06-10T19:17:06.370Z,22.80
2018-06-10T19:19:34.545Z,22.70
2018-06-10T19:22:02.783Z,22.70
2018-06-10T19:24:30.905Z,22.60
2018-06-10T19:26:59.130Z,22.60
2018-06-10T19:29:27.335Z,22.50
2018-06-10T19:31:55.497Z,22.50
2018-06-10T19:34:23.717Z,22.40
2018-06-10T19:36:51.883Z,22.40
2018-06-10T19:39:20.058Z,22.40
2018-06-10T19:41:48.254Z,22.40
2018-06-10T19:44:16.436Z,22.30
2018-06-10T19:46:44.638Z,22.30
2018-06-10T19:49:12.798Z,22.30
2018-06-10T19:51:40.971Z,22.30
2018-06-10T19:54:09.197Z,22.20
2018-06-10T19:56:37.381Z,22.10
2018-06-10T19:59:05.536Z,22.00
2018-06-10T20:01:33.678Z,22.00
2018-06-10T20:04:02.756Z,22.00
2018-06-10T20:06:30.966Z,21.90
2018-06-10T20:08:59.122Z,21.80
2018-06-10T20:11:27.273Z,21.80
2018-06-10T20:13:55.514Z,21.80
2018-06-10T20:16:24.607Z,21.80
2018-06-10T20:18:52.790Z,21.70
2018-06-10T20:21:20.963Z,21.70
2018-06-10T20:23:49.138Z,21.60
2018-06-10T20:26:17.278Z,21.60
2018-06-10T20:28:45.461Z,21.60
2018-06-10T20:31:13.617Z,21.60
2018-06-10T20:33:41.805Z,21.60
2018-06-10T20:36:09.965Z,21.50
2018-06-10T20:38:38.125Z,21.40
2018-06-10T20:41:06.516Z,21.30
2018-06-10T20:43:34.666Z,21.30
2018-06-10T20:46:03.159Z,21.30
2018-06-10T20:48:31.475Z,21.20
2018-06-10T20:50:59.521Z,21.20
2018-06-10T20:55:55.582Z,21.10
2018-06-10T20:58:23.722Z,21.10
2018-06-10T21:00:51.870Z,21.10
2018-06-10T21:03:20.006Z,21.00
2018-06-10T21:05:48.238Z,21.00
2018-06-10T21:08:16.496Z,20.90
2018-06-10T21:10:44.606Z,20.90
2018-06-10T21:13:12.754Z,20.90
2018-06-10T21:15:40.918Z,20.80
2018-06-10T21:18:09.178Z,20.80
2018-06-10T21:20:37.353Z,20.80
2018-06-10T21:23:05.493Z,20.70
2018-06-10T21:25:33.646Z,20.60
2018-06-10T21:28:01.791Z,20.60
2018-06-10T21:30:29.962Z,20.50
2018-06-10T21:32:58.505Z,20.50
2018-06-10T21:35:26.638Z,20.40
2018-06-10T21:37:54.781Z,20.30
2018-06-10T21:40:22.921Z,20.30
2018-06-10T21:42:51.397Z,20.30
2018-06-10T21:45:19.517Z,20.20
2018-06-10T21:47:47.642Z,20.10
2018-06-10T21:50:15.746Z,20.00
2018-06-10T21:52:43.894Z,20.00
2018-06-10T21:55:12.061Z,20.00
2018-06-10T21:57:40.185Z,20.00
2018-06-10T22:00:13.530Z,19.90
2018-06-10T22:02:41.690Z,19.90
2018-06-10T22:05:09.817Z,19.90
2018-06-10T22:07:37.943Z,19.90
2018-06-10T22:10:06.051Z,19.80
2018-06-10T22:12:34.203Z,19.80
2018-06-10T22:15:02.332Z,19.80
2018-06-10T22:17:30.434Z,19.70
2018-06-10T22:19:58.542Z,19.70
2018-06-10T22:22:27.457Z,19.70
2018-06-10T22:24:55.678Z,19.60
2018-06-10T22:27:23.770Z,19.60
2018-06-10T22:29:51.890Z,19.50
2018-06-10T22:32:20.003Z,19.40
2018-06-10T22:34:48.116Z,19.30
2018-06-10T22:37:16.295Z,19.40
2018-06-10T22:39:44.454Z,19.30
2018-06-10T22:42:12.613Z,19.30
2018-06-10T22:44:40.757Z,19.30
2018-06-10T22:47:09.876Z,19.30
2018-06-10T22:49:38.585Z,19.20
2018-06-10T22:54:42.257Z,19.20
2018-06-10T22:57:10.402Z,19.10
2018-06-10T22:59:38.757Z,19.00
2018-06-10T23:02:07.714Z,19.00
2018-06-10T23:04:35.977Z,19.00
2018-06-10T23:07:04.166Z,19.00
2018-06-10T23:09:32.307Z,18.90
2018-06-10T23:12:00.457Z,18.80
2018-06-10T23:14:28.646Z,18.80
2018-06-10T23:16:56.786Z,18.80
2018-06-10T23:19:24.938Z,18.80
2018-06-10T23:21:53.115Z,18.80
2018-06-10T23:24:21.263Z,18.80
2018-06-10T23:26:49.414Z,18.80
2018-06-10T23:29:17.562Z,18.80
2018-06-10T23:31:45.702Z,18.80
2018-06-10T23:34:13.842Z,18.70
2018-06-10T23:36:42.039Z,18.70
2018-06-10T23:39:10.277Z,18.70
2018-06-10T23:41:39.129Z,18.60
2018-06-10T23:44:07.266Z,18.70
2018-06-10T23:46:35.418Z,18.50
2018-06-10T23:49:03.586Z,18.50
2018-06-10T23:51:31.834Z,18.60
2018-06-10T23:53:59.977Z,18.50
2018-06-10T23:56:28.133Z,18.50
2018-06-10T23:58:56.265Z,18.40
